createdAt,value
2019-04-25T00:01:11.608Z,30.78
2019-04-25T00:03:38.392Z,30.86
2019-04-25T00:06:05.172Z,30.82
2019-04-25T00:08:33.160Z,30.82
2019-04-25T00:11:01.705Z,30.89
2019-04-25T00:13:27.273Z,30.96
2019-04-25T00:15:54.425Z,30.95
2019-04-25T00:18:23.360Z,30.96
2019-04-25T00:20:52.283Z,31.02
2019-04-25T00:23:18.603Z,31.00
2019-04-25T00:25:47.148Z,31.04
2019-04-25T00:28:12.128Z,31.08
2019-04-25T00:30:40.309Z,31.10
2019-04-25T00:33:05.670Z,31.19
2019-04-25T00:35:32.510Z,31.17
2019-04-25T00:37:59.354Z,31.14
2019-04-25T00:40:26.056Z,31.23
2019-04-25T00:42:53.842Z,31.21
2019-04-25T00:45:19.674Z,31.26
2019-04-25T00:47:46.384Z,31.23
2019-04-25T00:50:13.156Z,31.30
2019-04-25T00:52:41.443Z,31.32
2019-04-25T00:55:06.840Z,31.33
2019-04-25T00:57:33.536Z,31.30
2019-04-25T01:00:01.846Z,31.35
2019-04-25T01:02:27.047Z,31.35
2019-04-25T01:04:54.371Z,31.35
2019-04-25T01:07:22.395Z,31.42
2019-04-25T01:09:47.904Z,31.41
2019-04-25T01:12:15.304Z,31.40
2019-04-25T01:14:42.511Z,31.45
2019-04-25T01:17:09.331Z,31.50
2019-04-25T01:19:38.338Z,31.53
2019-04-25T01:24:33.909Z,31.54
2019-04-25T01:26:59.084Z,31.55
2019-04-25T01:29:26.138Z,31.57
2019-04-25T01:31:54.418Z,31.56
2019-04-25T01:34:20.654Z,31.62
2019-04-25T01:36:47.417Z,31.63
2019-04-25T01:39:14.411Z,31.74
2019-04-25T01:41:40.905Z,31.74
2019-04-25T01:44:08.147Z,31.68
2019-04-25T01:46:35.053Z,31.65
2019-04-25T01:49:01.744Z,31.69
2019-04-25T01:51:28.514Z,31.74
2019-04-25T01:53:56.812Z,31.67
2019-04-25T01:56:24.606Z,31.78
2019-04-25T01:58:49.813Z,31.73
2019-04-25T02:01:18.297Z,31.75
2019-04-25T02:03:45.507Z,31.77
2019-04-25T02:06:13.630Z,31.81
2019-04-25T02:08:39.395Z,31.73
2019-04-25T02:11:06.224Z,31.84
2019-04-25T02:13:33.597Z,31.82
2019-04-25T02:15:59.793Z,31.92
2019-04-25T02:18:27.827Z,31.89
2019-04-25T02:20:57.907Z,31.94
2019-04-25T02:23:21.358Z,31.86
2019-04-25T02:25:48.095Z,31.91
2019-04-25T02:28:15.864Z,31.94
2019-04-25T02:30:41.566Z,31.95
2019-04-25T02:33:09.246Z,32.01
2019-04-25T02:35:35.167Z,31.99
2019-04-25T02:38:04.595Z,31.98
2019-04-25T02:40:28.603Z,31.89
2019-04-25T02:42:57.335Z,32.00
2019-04-25T02:45:24.408Z,32.04
2019-04-25T02:47:48.839Z,32.03
2019-04-25T02:50:15.621Z,32.08
2019-04-25T02:52:44.242Z,32.11
2019-04-25T02:55:11.088Z,32.01
2019-04-25T02:57:36.227Z,32.09
2019-04-25T03:00:05.968Z,32.13
2019-04-25T03:02:29.796Z,32.09
2019-04-25T03:04:58.376Z,32.11
2019-04-25T03:07:24.656Z,32.18
2019-04-25T03:12:29.175Z,32.26
2019-04-25T03:14:44.695Z,32.38
2019-04-25T03:17:11.378Z,32.29
2019-04-25T03:19:38.097Z,32.23
2019-04-25T03:22:09.157Z,32.26
2019-04-25T03:24:34.927Z,32.19
2019-04-25T03:26:59.404Z,32.22
2019-04-25T03:29:25.792Z,32.25
2019-04-25T03:31:55.618Z,32.32
2019-04-25T03:34:20.756Z,32.25
2019-04-25T03:36:46.278Z,32.25
2019-04-25T03:39:16.270Z,32.23
2019-04-25T03:41:39.793Z,32.20
2019-04-25T03:44:10.148Z,32.10
2019-04-25T03:46:36.858Z,32.14
2019-04-25T03:49:05.015Z,32.74
2019-04-25T03:51:30.554Z,32.22
2019-04-25T03:53:57.752Z,32.22
2019-04-25T03:56:24.934Z,32.23
2019-04-25T03:58:51.435Z,32.16
2019-04-25T04:01:18.153Z,32.20
2019-04-25T04:06:11.805Z,32.22
2019-04-25T04:08:38.546Z,32.33
2019-04-25T04:11:07.324Z,32.43
2019-04-25T04:13:32.028Z,32.27
2019-04-25T04:15:58.870Z,32.15
2019-04-25T04:18:27.038Z,32.21
2019-04-25T04:20:53.487Z,32.04
2019-04-25T04:23:19.116Z,32.30
2019-04-25T04:28:14.055Z,32.50
2019-04-25T04:30:39.616Z,32.51
2019-04-25T04:33:06.976Z,32.45
2019-04-25T04:35:33.623Z,32.34
2019-04-25T04:38:00.009Z,32.32
2019-04-25T04:40:26.780Z,32.26
2019-04-25T04:42:53.623Z,32.17
2019-04-25T04:45:20.336Z,32.11
2019-04-25T04:50:15.320Z,32.13
2019-04-25T04:52:40.990Z,31.96
2019-04-25T04:55:09.719Z,31.88
2019-04-25T04:57:36.270Z,31.94
2019-04-25T05:00:01.514Z,31.83
2019-04-25T05:02:30.406Z,31.79
2019-04-25T05:04:57.613Z,31.77
2019-04-25T05:07:25.381Z,31.76
2019-04-25T05:09:51.285Z,31.75
2019-04-25T05:12:19.302Z,31.57
2019-04-25T05:14:45.443Z,31.60
2019-04-25T05:17:16.347Z,31.66
2019-04-25T05:19:43.439Z,31.59
2019-04-25T05:22:09.681Z,31.54
2019-04-25T05:24:36.619Z,31.56
2019-04-25T05:27:03.854Z,31.36
2019-04-25T05:29:30.380Z,31.28
2019-04-25T05:31:57.078Z,31.25
2019-04-25T05:34:25.613Z,31.25
2019-04-25T05:36:50.810Z,31.22
2019-04-25T05:39:18.186Z,31.07
2019-04-25T05:41:44.591Z,30.94
2019-04-25T05:44:11.748Z,30.86
2019-04-25T05:46:38.947Z,30.90
2019-04-25T05:49:05.736Z,31.03
2019-04-25T05:51:33.837Z,31.01
2019-04-25T05:53:59.682Z,30.81
2019-04-25T05:56:28.281Z,30.75
2019-04-25T05:58:54.146Z,30.65
2019-04-25T06:01:21.291Z,30.84
2019-04-25T06:03:48.177Z,30.70
2019-04-25T06:06:15.290Z,30.79
2019-04-25T06:11:11.235Z,30.71
2019-04-25T06:13:38.929Z,30.67
2019-04-25T06:16:09.027Z,30.83
2019-04-25T06:18:40.595Z,30.75
2019-04-25T06:21:08.257Z,30.94
2019-04-25T06:23:39.986Z,30.83
2019-04-25T06:26:19.079Z,30.81
2019-04-25T06:28:49.004Z,30.86
2019-04-25T06:31:10.262Z,30.73
2019-04-25T06:33:35.935Z,30.56
2019-04-25T06:36:06.823Z,30.56
2019-04-25T06:38:37.247Z,30.43
2019-04-25T06:41:05.638Z,30.66
2019-04-25T06:43:34.316Z,30.72
2019-04-25T06:46:06.478Z,30.40
2019-04-25T06:48:38.270Z,30.39
2019-04-25T06:51:06.011Z,30.43
2019-04-25T06:53:34.842Z,30.57
2019-04-25T06:56:11.308Z,30.39
2019-04-25T06:58:38.917Z,30.56
2019-04-25T07:01:11.414Z,30.39
2019-04-25T07:03:44.258Z,30.38
2019-04-25T07:06:12.942Z,30.41
2019-04-25T07:08:46.611Z,30.41
2019-04-25T07:11:14.468Z,30.70
2019-04-25T07:13:45.641Z,30.33
2019-04-25T07:16:23.164Z,30.29
2019-04-25T07:18:50.933Z,30.27
2019-04-25T07:21:20.618Z,30.03
2019-04-25T07:23:51.444Z,30.23
2019-04-25T07:26:20.672Z,30.15
2019-04-25T07:28:55.392Z,30.10
2019-04-25T07:31:29.093Z,30.11
2019-04-25T07:34:14.581Z,30.01
2019-04-25T07:36:47.069Z,30.13
2019-04-25T07:39:27.887Z,30.03
2019-04-25T07:42:05.013Z,30.00
2019-04-25T07:44:49.117Z,29.86
2019-04-25T07:47:11.218Z,29.73
2019-04-25T07:49:43.280Z,29.86
2019-04-25T07:52:11.573Z,29.84
2019-04-25T07:54:44.063Z,29.85
2019-04-25T07:57:11.669Z,29.70
2019-04-25T07:59:45.443Z,29.58
2019-04-25T08:02:29.685Z,29.45
2019-04-25T08:05:25.342Z,29.74
2019-04-25T08:08:08.257Z,29.29
2019-04-25T08:10:36.027Z,29.38
2019-04-25T08:13:08.187Z,29.55
2019-04-25T08:15:39.227Z,29.33
2019-04-25T08:18:06.612Z,29.40
2019-04-25T08:20:35.779Z,29.45
2019-04-25T08:23:05.394Z,29.61
2019-04-25T08:25:37.648Z,29.67
2019-04-25T08:28:04.606Z,29.53
2019-04-25T08:30:34.180Z,29.50
2019-04-25T08:33:05.097Z,29.57
2019-04-25T08:35:34.286Z,29.52
2019-04-25T08:38:01.392Z,29.52
2019-04-25T08:40:35.679Z,29.16
2019-04-25T08:43:00.175Z,29.36
2019-04-25T08:45:27.599Z,29.29
2019-04-25T08:47:55.111Z,29.08
2019-04-25T08:50:29.048Z,29.20
2019-04-25T08:52:50.096Z,29.42
2019-04-25T08:55:20.872Z,29.11
2019-04-25T08:57:48.718Z,29.35
2019-04-25T09:00:14.379Z,29.29
2019-04-25T09:02:40.839Z,29.34
2019-04-25T09:05:07.479Z,29.15
2019-04-25T09:07:35.395Z,29.31
2019-04-25T09:10:00.740Z,29.02
2019-04-25T09:12:27.426Z,29.24
2019-04-25T09:14:54.288Z,29.27
2019-04-25T09:17:20.750Z,28.93
2019-04-25T09:19:47.400Z,29.26
2019-04-25T09:22:14.083Z,28.90
2019-04-25T09:24:40.740Z,29.10
2019-04-25T09:27:07.395Z,29.08
2019-04-25T09:29:35.246Z,29.01
2019-04-25T09:32:00.694Z,29.07
2019-04-25T09:34:27.348Z,29.08
2019-04-25T09:36:54.030Z,29.12
2019-04-25T09:39:20.681Z,29.76
2019-04-25T09:41:47.316Z,29.47
2019-04-25T09:44:14.437Z,29.50
2019-04-25T09:46:40.655Z,29.60
2019-04-25T09:49:07.298Z,29.60
2019-04-25T09:51:33.958Z,29.79
2019-04-25T09:54:00.601Z,29.66
2019-04-25T09:56:27.276Z,29.79
2019-04-25T09:58:54.025Z,29.74
2019-04-25T10:01:20.548Z,29.59
2019-04-25T10:03:47.399Z,29.31
2019-04-25T10:06:13.870Z,29.81
2019-04-25T10:08:41.097Z,29.74
2019-04-25T10:11:07.160Z,29.58
2019-04-25T10:13:33.815Z,29.56
2019-04-25T10:16:00.464Z,29.68
2019-04-25T10:18:27.136Z,29.61
2019-04-25T10:20:54.207Z,29.71
2019-04-25T10:23:20.464Z,29.61
2019-04-25T10:28:13.802Z,29.54
2019-04-25T10:30:41.050Z,29.62
2019-04-25T10:33:07.126Z,29.51
2019-04-25T10:35:46.439Z,29.54
2019-04-25T10:38:00.458Z,29.50
2019-04-25T10:40:27.102Z,29.47
2019-04-25T10:42:53.731Z,29.52
2019-04-25T10:45:23.515Z,29.44
2019-04-25T10:47:47.005Z,29.54
2019-04-25T10:50:16.775Z,29.52
2019-04-25T10:52:45.808Z,29.49
2019-04-25T10:55:11.147Z,29.44
2019-04-25T10:57:37.790Z,29.50
2019-04-25T11:00:08.982Z,29.51
2019-04-25T11:02:31.133Z,29.43
2019-04-25T11:04:57.776Z,29.40
2019-04-25T11:07:24.409Z,29.41
2019-04-25T11:09:51.350Z,29.36
2019-04-25T11:12:17.713Z,29.32
2019-04-25T11:14:44.397Z,29.34
2019-04-25T11:17:11.041Z,29.32
2019-04-25T11:19:37.681Z,29.25
2019-04-25T11:22:04.331Z,29.25
2019-04-25T11:24:30.973Z,29.08
2019-04-25T11:26:57.610Z,29.41
2019-04-25T11:29:24.246Z,29.24
2019-04-25T11:31:50.941Z,29.29
2019-04-25T11:34:17.526Z,29.16
2019-04-25T11:36:44.286Z,29.10
2019-04-25T11:39:10.927Z,29.15
2019-04-25T11:41:37.566Z,29.03
2019-04-25T11:44:04.570Z,29.08
2019-04-25T11:46:31.208Z,28.91
2019-04-25T11:48:57.862Z,28.85
2019-04-25T11:51:24.503Z,29.03
2019-04-25T11:53:51.572Z,28.97
2019-04-25T11:56:17.808Z,29.08
2019-04-25T11:58:45.642Z,29.03
2019-04-25T12:01:11.116Z,28.87
2019-04-25T12:03:37.754Z,29.03
2019-04-25T12:06:04.411Z,28.97
2019-04-25T12:08:31.048Z,29.00
2019-04-25T12:10:57.703Z,29.30
2019-04-25T12:13:24.390Z,29.14
2019-04-25T12:15:51.846Z,29.13
2019-04-25T12:18:17.644Z,29.27
2019-04-25T12:20:47.519Z,29.28
2019-04-25T12:23:16.479Z,29.21
2019-04-25T12:25:40.978Z,29.27
2019-04-25T12:28:07.613Z,29.28
2019-04-25T12:30:39.810Z,29.07
2019-04-25T12:33:00.903Z,29.13
2019-04-25T12:35:27.559Z,29.04
2019-04-25T12:37:57.200Z,28.96
2019-04-25T12:40:24.303Z,28.98
2019-04-25T12:42:52.789Z,28.98
2019-04-25T12:45:17.192Z,29.12
2019-04-25T12:47:43.842Z,29.07
2019-04-25T12:50:10.488Z,29.12
2019-04-25T12:52:37.131Z,28.99
2019-04-25T12:55:04.059Z,29.10
2019-04-25T12:57:30.412Z,28.86
2019-04-25T12:59:57.599Z,29.06
2019-04-25T13:02:23.698Z,28.81
2019-04-25T13:04:50.475Z,28.81
2019-04-25T13:07:16.993Z,28.72
2019-04-25T13:09:43.623Z,28.65
2019-04-25T13:14:36.918Z,28.57
2019-04-25T13:17:06.517Z,28.50
2019-04-25T13:19:30.204Z,28.45
2019-04-25T13:21:57.094Z,28.69
2019-04-25T13:24:23.501Z,28.91
2019-04-25T13:26:50.169Z,28.57
2019-04-25T13:29:16.839Z,28.63
2019-04-25T13:31:44.301Z,28.68
2019-04-25T13:34:10.120Z,28.48
2019-04-25T13:36:36.756Z,28.67
2019-04-25T13:39:04.341Z,28.86
2019-04-25T13:41:30.086Z,28.77
2019-04-25T13:43:57.676Z,28.45
2019-04-25T13:46:26.095Z,28.35
2019-04-25T13:48:50.010Z,28.44
2019-04-25T13:51:16.698Z,28.22
2019-04-25T13:53:43.502Z,28.16
2019-04-25T13:56:10.018Z,28.38
2019-04-25T13:58:36.656Z,28.54
2019-04-25T14:01:12.950Z,28.45
2019-04-25T14:03:29.939Z,28.53
2019-04-25T14:05:56.592Z,28.55
2019-04-25T14:08:24.675Z,28.79
2019-04-25T14:10:49.862Z,28.94
2019-04-25T14:13:16.496Z,28.78
2019-04-25T14:15:44.969Z,28.61
2019-04-25T14:18:09.777Z,28.63
2019-04-25T14:20:36.438Z,28.92
2019-04-25T14:23:03.524Z,28.78
2019-04-25T14:25:29.837Z,28.92
2019-04-25T14:27:56.352Z,28.97
2019-04-25T14:32:49.684Z,28.98
2019-04-25T14:35:16.325Z,28.82
2019-04-25T14:37:43.935Z,28.80
2019-04-25T14:40:09.601Z,28.82
2019-04-25T14:42:36.238Z,28.78
2019-04-25T14:45:02.875Z,28.83
2019-04-25T14:47:29.628Z,28.81
2019-04-25T14:49:56.160Z,28.86
2019-04-25T14:52:24.395Z,28.85
2019-04-25T14:54:49.434Z,28.84
2019-04-25T14:57:16.120Z,28.80
2019-04-25T14:59:42.764Z,28.79
2019-04-25T15:02:09.398Z,28.84
2019-04-25T15:04:36.048Z,28.83
2019-04-25T15:07:02.692Z,28.82
2019-04-25T15:09:29.343Z,28.86
2019-04-25T15:11:55.978Z,28.95
2019-04-25T15:14:23.541Z,29.02
2019-04-25T15:16:49.254Z,29.11
2019-04-25T15:19:15.895Z,29.21
2019-04-25T15:21:42.527Z,29.34
2019-04-25T15:24:09.178Z,29.69
2019-04-25T15:26:35.818Z,29.94
2019-04-25T15:29:02.456Z,30.22
2019-04-25T15:31:29.994Z,30.31
2019-04-25T15:33:55.762Z,30.37
2019-04-25T15:36:22.401Z,30.59
2019-04-25T15:38:49.046Z,30.63
2019-04-25T15:41:15.677Z,30.70
2019-04-25T15:43:42.324Z,30.96
2019-04-25T15:46:08.962Z,31.07
2019-04-25T15:48:35.628Z,31.47
2019-04-25T15:51:02.267Z,31.37
2019-04-25T15:53:29.344Z,31.36
2019-04-25T15:55:55.555Z,31.51
2019-04-25T15:58:22.195Z,31.68
2019-04-25T16:00:48.862Z,31.69
2019-04-25T16:03:15.499Z,31.46
2019-04-25T16:05:42.145Z,31.57
2019-04-25T16:08:08.824Z,31.46
2019-04-25T16:10:36.446Z,31.48
2019-04-25T16:13:02.107Z,31.50
2019-04-25T16:15:29.066Z,31.62
2019-04-25T16:17:55.474Z,31.61
2019-04-25T16:20:22.123Z,31.59
2019-04-25T16:25:15.412Z,31.62
2019-04-25T16:27:42.048Z,31.59
2019-04-25T16:30:08.702Z,31.57
2019-04-25T16:32:35.367Z,31.51
2019-04-25T16:35:01.998Z,31.50
2019-04-25T16:37:29.180Z,31.54
2019-04-25T16:39:55.278Z,31.56
2019-04-25T16:42:21.907Z,31.56
2019-04-25T16:44:48.639Z,31.52
2019-04-25T16:47:15.281Z,31.53
2019-04-25T16:49:42.043Z,31.61
2019-04-25T16:52:08.711Z,31.63
2019-04-25T16:54:35.927Z,31.62
2019-04-25T16:57:01.984Z,31.65
2019-04-25T16:59:29.518Z,31.63
2019-04-25T17:01:55.386Z,31.69
2019-04-25T17:04:22.069Z,31.72
2019-04-25T17:06:48.718Z,31.64
2019-04-25T17:09:15.354Z,31.71
2019-04-25T17:11:42.023Z,31.78
2019-04-25T17:14:08.672Z,31.82
2019-04-25T17:16:35.309Z,31.91
2019-04-25T17:19:01.988Z,32.00
2019-04-25T17:21:28.693Z,32.03
2019-04-25T17:23:55.333Z,32.07
2019-04-25T17:26:21.987Z,32.12
2019-04-25T17:28:48.622Z,32.07
2019-04-25T17:31:15.262Z,32.20
2019-04-25T17:33:42.510Z,32.23
2019-04-25T17:36:08.545Z,32.19
2019-04-25T17:38:35.487Z,32.23
2019-04-25T17:43:28.478Z,31.91
2019-04-25T17:45:55.122Z,32.02
2019-04-25T17:48:21.760Z,32.21
2019-04-25T17:50:48.399Z,32.12
2019-04-25T17:53:15.059Z,32.12
2019-04-25T17:55:41.690Z,32.06
2019-04-25T17:58:08.367Z,32.02
2019-04-25T18:00:35.318Z,31.96
2019-04-25T18:05:28.306Z,31.99
2019-04-25T18:07:54.947Z,31.85
2019-04-25T18:10:21.600Z,31.81
2019-04-25T18:12:48.239Z,31.73
2019-04-25T18:15:14.912Z,31.71
2019-04-25T18:17:42.370Z,31.81
2019-04-25T18:20:08.201Z,31.74
2019-04-25T18:22:35.352Z,31.77
2019-04-25T18:25:01.479Z,31.77
2019-04-25T18:27:28.113Z,31.70
2019-04-25T18:29:54.758Z,31.68
2019-04-25T18:32:21.397Z,31.69
2019-04-25T18:34:48.048Z,31.65
2019-04-25T18:39:41.959Z,31.70
2019-04-25T18:42:08.187Z,31.61
2019-04-25T18:44:35.623Z,31.57
2019-04-25T18:47:01.314Z,31.56
2019-04-25T18:49:27.962Z,31.49
2019-04-25T18:51:57.975Z,31.43
2019-04-25T18:54:21.327Z,31.36
2019-04-25T18:56:47.968Z,31.37
2019-04-25T18:59:14.710Z,31.29
2019-04-25T19:01:41.669Z,31.34
2019-04-25T19:04:07.982Z,31.29
2019-04-25T19:06:34.619Z,31.34
2019-04-25T19:09:01.266Z,31.31
2019-04-25T19:13:54.548Z,31.30
2019-04-25T19:16:21.194Z,31.26
2019-04-25T19:18:48.051Z,31.26
2019-04-25T19:21:14.556Z,31.24
2019-04-25T19:23:41.793Z,31.34
2019-04-25T19:26:07.836Z,31.41
2019-04-25T19:28:34.525Z,31.31
2019-04-25T19:31:01.127Z,31.28
2019-04-25T19:33:35.527Z,31.31
2019-04-25T19:35:54.409Z,31.33
2019-04-25T19:38:21.049Z,31.45
2019-04-25T19:40:48.124Z,31.31
2019-04-25T19:43:14.412Z,31.39
2019-04-25T19:45:41.070Z,31.45
2019-04-25T19:48:07.700Z,31.37
2019-04-25T19:50:34.334Z,31.33
2019-04-25T19:53:00.979Z,31.37
2019-04-25T19:55:27.618Z,31.34
2019-04-25T19:57:54.246Z,31.34
2019-04-25T20:00:20.886Z,31.39
2019-04-25T20:02:48.647Z,31.35
2019-04-25T20:05:14.186Z,31.49
2019-04-25T20:07:43.735Z,31.44
2019-04-25T20:10:07.458Z,31.46
2019-04-25T20:12:34.111Z,31.53
2019-04-25T20:15:00.765Z,31.50
2019-04-25T20:17:27.403Z,31.57
2019-04-25T20:19:54.056Z,31.56
2019-04-25T20:22:20.703Z,31.59
2019-04-25T20:24:48.253Z,31.74
2019-04-25T20:27:13.990Z,31.68
2019-04-25T20:29:40.634Z,31.71
2019-04-25T20:32:07.325Z,31.67
2019-04-25T20:34:33.920Z,31.74
2019-04-25T20:37:00.591Z,31.87
2019-04-25T20:39:27.830Z,31.81
2019-04-25T20:41:53.970Z,31.87
2019-04-25T20:44:20.508Z,31.90
2019-04-25T20:46:47.144Z,31.90
2019-04-25T20:49:13.792Z,31.97
2019-04-25T20:51:40.438Z,31.91
2019-04-25T20:54:07.092Z,31.99
2019-04-25T20:56:33.728Z,31.98
2019-04-25T20:59:00.370Z,32.07
2019-04-25T21:01:27.052Z,32.03
2019-04-25T21:03:54.086Z,32.13
2019-04-25T21:06:20.340Z,32.14
2019-04-25T21:08:47.024Z,32.20
2019-04-25T21:11:13.663Z,32.31
2019-04-25T21:13:40.301Z,32.23
2019-04-25T21:16:06.943Z,32.29
2019-04-25T21:18:33.581Z,32.20
2019-04-25T21:21:01.230Z,32.31
2019-04-25T21:23:26.894Z,32.33
2019-04-25T21:25:53.534Z,32.35
2019-04-25T21:28:20.173Z,32.36
2019-04-25T21:30:46.857Z,32.44
2019-04-25T21:33:13.492Z,32.52
2019-04-25T21:35:40.135Z,32.48
2019-04-25T21:38:06.788Z,32.53
2019-04-25T21:40:33.480Z,32.57
2019-04-25T21:43:00.234Z,32.58
2019-04-25T21:45:26.791Z,32.63
2019-04-25T21:47:54.044Z,32.62
2019-04-25T21:50:20.155Z,32.66
2019-04-25T21:52:46.796Z,32.69
2019-04-25T21:55:13.486Z,32.63
2019-04-25T21:57:40.124Z,32.74
2019-04-25T22:00:09.242Z,32.64
2019-04-25T22:02:33.515Z,32.72
2019-04-25T22:05:00.565Z,32.65
2019-04-25T22:07:26.873Z,32.62
2019-04-25T22:09:55.450Z,32.67
2019-04-25T22:12:20.128Z,32.66
2019-04-25T22:14:46.809Z,32.76
2019-04-25T22:17:13.452Z,32.66
2019-04-25T22:19:40.090Z,32.67
2019-04-25T22:22:06.894Z,32.70
2019-04-25T22:24:33.418Z,32.81
2019-04-25T22:27:00.874Z,32.77
2019-04-25T22:29:26.766Z,32.63
2019-04-25T22:31:53.405Z,32.78
2019-04-25T22:34:20.043Z,32.78
2019-04-25T22:36:46.690Z,32.74
2019-04-25T22:39:13.331Z,32.70
2019-04-25T22:41:39.979Z,32.77
2019-04-25T22:44:06.626Z,32.80
2019-04-25T22:46:33.298Z,32.84
2019-04-25T22:49:00.061Z,32.76
2019-04-25T22:51:26.618Z,32.70
2019-04-25T22:53:53.348Z,32.71
2019-04-25T22:56:20.027Z,32.74
2019-04-25T22:58:46.738Z,32.79
2019-04-25T23:01:13.308Z,32.73
2019-04-25T23:03:39.953Z,32.80
2019-04-25T23:06:07.382Z,32.83
2019-04-25T23:08:33.220Z,32.81
2019-04-25T23:10:59.866Z,32.76
2019-04-25T23:13:26.505Z,32.74
2019-04-25T23:15:53.186Z,32.78
2019-04-25T23:18:19.871Z,32.75
2019-04-25T23:20:46.567Z,32.82
2019-04-25T23:23:13.775Z,32.78
2019-04-25T23:25:39.842Z,32.84
2019-04-25T23:28:06.497Z,32.86
2019-04-25T23:30:33.129Z,32.91
2019-04-25T23:32:59.763Z,32.89
2019-04-25T23:35:30.870Z,32.90
2019-04-25T23:37:53.043Z,32.89
2019-04-25T23:40:19.682Z,32.95
2019-04-25T23:42:46.374Z,32.94
2019-04-25T23:45:13.018Z,32.93
2019-04-25T23:47:39.650Z,32.91
2019-04-25T23:50:07.151Z,32.95
2019-04-25T23:52:32.939Z,32.95
2019-04-25T23:54:59.591Z,32.94
2019-04-25T23:57:26.230Z,33.03
2019-04-25T23:59:52.870Z,32.94
